sensor_id;sensor_type;location;lat;lon;timestamp;pressure;altitude;pressure_sealevel;temperature;humidity
33486;BME280;19824;52.098;5.004;2023-01-01T00:00:51;100713.41;;;16.84;66.50
33486;BME280;19824;52.098;5.004;2023-01-01T00:03:20;100703.69;;;16.83;66.30
33486;BME280;19824;52.098;5.004;2023-01-01T00:05:49;100710.94;;;16.82;66.58
33486;BME280;19824;52.098;5.004;2023-01-01T00:08:18;100713.78;;;16.81;66.78
33486;BME280;19824;52.098;5.004;2023-01-01T00:10:47;100726.56;;;16.79;66.97
33486;BME280;19824;52.098;5.004;2023-01-01T00:13:13;100716.69;;;16.79;66.62
33486;BME280;19824;52.098;5.004;2023-01-01T00:15:42;100721.69;;;16.82;66.41
33486;BME280;19824;52.098;5.004;2023-01-01T00:18:13;100723.88;;;16.79;66.71
33486;BME280;19824;52.098;5.004;2023-01-01T00:20:42;100714.63;;;16.81;66.60
33486;BME280;19824;52.098;5.004;2023-01-01T00:23:11;100711.47;;;16.78;66.97
33486;BME280;19824;52.098;5.004;2023-01-01T00:25:40;100709.44;;;16.80;66.11
33486;BME280;19824;52.098;5.004;2023-01-01T00:28:09;100709.25;;;16.81;66.17
33486;BME280;19824;52.098;5.004;2023-01-01T00:30:39;100718.34;;;16.80;66.25
33486;BME280;19824;52.098;5.004;2023-01-01T00:33:09;100716.31;;;16.82;66.93
33486;BME280;19824;52.098;5.004;2023-01-01T00:35:39;100715.66;;;16.80;66.34
33486;BME280;19824;52.098;5.004;2023-01-01T00:38:08;100721.50;;;16.84;66.82
33486;BME280;19824;52.098;5.004;2023-01-01T00:40:37;100721.56;;;16.76;66.78
33486;BME280;19824;52.098;5.004;2023-01-01T00:43:06;100712.47;;;16.77;66.67
33486;BME280;19824;52.098;5.004;2023-01-01T00:45:35;100718.72;;;16.77;66.71
33486;BME280;19824;52.098;5.004;2023-01-01T00:48:04;100712.47;;;16.77;67.33
33486;BME280;19824;52.098;5.004;2023-01-01T00:50:33;100715.16;;;16.77;67.06
33486;BME280;19824;52.098;5.004;2023-01-01T00:53:04;100711.66;;;16.76;66.64
33486;BME280;19824;52.098;5.004;2023-01-01T00:55:32;100707.94;;;16.77;66.88
33486;BME280;19824;52.098;5.004;2023-01-01T00:58:01;100718.50;;;16.79;66.41
33486;BME280;19824;52.098;5.004;2023-01-01T01:00:30;100714.16;;;16.78;65.99
33486;BME280;19824;52.098;5.004;2023-01-01T01:02:59;100718.72;;;16.77;66.18
33486;BME280;19824;52.098;5.004;2023-01-01T01:05:28;100710.81;;;16.76;66.02
33486;BME280;19824;52.098;5.004;2023-01-01T01:07:57;100714.50;;;16.75;66.14
33486;BME280;19824;52.098;5.004;2023-01-01T01:10:28;100714.50;;;16.75;66.45
33486;BME280;19824;52.098;5.004;2023-01-01T01:12:57;100721.19;;;16.79;65.76
33486;BME280;19824;52.098;5.004;2023-01-01T01:15:25;100726.94;;;16.76;66.41
33486;BME280;19824;52.098;5.004;2023-01-01T01:17:54;100749.78;;;16.80;66.24
33486;BME280;19824;52.098;5.004;2023-01-01T01:20:23;100731.13;;;16.78;65.66
33486;BME280;19824;52.098;5.004;2023-01-01T01:22:51;100735.66;;;16.78;65.59
33486;BME280;19824;52.098;5.004;2023-01-01T01:25:20;100748.94;;;16.79;66.00
33486;BME280;19824;52.098;5.004;2023-01-01T01:27:51;100755.16;;;16.80;65.64
33486;BME280;19824;52.098;5.004;2023-01-01T01:30:19;100760.25;;;16.75;65.95
33486;BME280;19824;52.098;5.004;2023-01-01T01:32:48;100761.91;;;16.76;66.27
33486;BME280;19824;52.098;5.004;2023-01-01T01:35:17;100772.03;;;16.74;66.37
33486;BME280;19824;52.098;5.004;2023-01-01T01:37:46;100767.03;;;16.71;66.65
33486;BME280;19824;52.098;5.004;2023-01-01T01:40:15;100774.06;;;16.72;66.30
33486;BME280;19824;52.098;5.004;2023-01-01T01:42:46;100761.16;;;16.67;67.06
33486;BME280;19824;52.098;5.004;2023-01-01T01:45:17;100762.84;;;16.68;66.31
33486;BME280;19824;52.098;5.004;2023-01-01T01:47:49;100768.41;;;16.67;66.71
33486;BME280;19824;52.098;5.004;2023-01-01T01:50:24;100767.38;;;16.68;67.05
33486;BME280;19824;52.098;5.004;2023-01-01T01:53:02;100768.50;;;16.59;66.72
33486;BME280;19824;52.098;5.004;2023-01-01T01:55:35;100769.78;;;16.63;66.43
33486;BME280;19824;52.098;5.004;2023-01-01T01:58:05;100781.84;;;16.67;66.35
33486;BME280;19824;52.098;5.004;2023-01-01T02:00:37;100778.34;;;16.67;66.32
33486;BME280;19824;52.098;5.004;2023-01-01T02:03:09;100787.31;;;16.59;66.19
33486;BME280;19824;52.098;5.004;2023-01-01T02:05:40;100792.03;;;16.57;66.72
33486;BME280;19824;52.098;5.004;2023-01-01T02:08:09;100801.84;;;16.50;67.02
33486;BME280;19824;52.098;5.004;2023-01-01T02:10:41;100798.81;;;16.53;66.83
33486;BME280;19824;52.098;5.004;2023-01-01T02:13:10;100799.16;;;16.50;66.74
33486;BME280;19824;52.098;5.004;2023-01-01T02:15:51;100790.06;;;16.51;66.44
33486;BME280;19824;52.098;5.004;2023-01-01T02:18:24;100800.13;;;16.57;66.69
33486;BME280;19824;52.098;5.004;2023-01-01T02:21:01;100800.78;;;16.59;66.47
33486;BME280;19824;52.098;5.004;2023-01-01T02:23:57;100797.50;;;16.49;66.78
33486;BME280;19824;52.098;5.004;2023-01-01T02:26:49;100805.19;;;16.52;66.16
33486;BME280;19824;52.098;5.004;2023-01-01T02:29:40;100802.16;;;16.55;66.06
33486;BME280;19824;52.098;5.004;2023-01-01T02:32:13;100801.13;;;16.56;65.89
33486;BME280;19824;52.098;5.004;2023-01-01T02:34:47;100807.31;;;16.57;65.73
33486;BME280;19824;52.098;5.004;2023-01-01T02:37:19;100805.94;;;16.61;66.26
33486;BME280;19824;52.098;5.004;2023-01-01T02:39:53;100799.09;;;16.58;65.71
33486;BME280;19824;52.098;5.004;2023-01-01T02:42:26;100816.59;;;16.54;65.75
33486;BME280;19824;52.098;5.004;2023-01-01T02:44:58;100822.34;;;16.51;66.46
33486;BME280;19824;52.098;5.004;2023-01-01T02:47:27;100817.97;;;16.50;66.37
33486;BME280;19824;52.098;5.004;2023-01-01T02:50:03;100820.50;;;16.52;65.73
33486;BME280;19824;52.098;5.004;2023-01-01T02:52:55;100819.00;;;16.49;65.68
33486;BME280;19824;52.098;5.004;2023-01-01T02:55:39;100817.06;;;16.43;66.35
33486;BME280;19824;52.098;5.004;2023-01-01T02:58:19;100819.44;;;16.38;66.03
33486;BME280;19824;52.098;5.004;2023-01-01T03:01:14;100823.97;;;16.38;66.73
33486;BME280;19824;52.098;5.004;2023-01-01T03:03:57;100829.53;;;16.36;65.98
33486;BME280;19824;52.098;5.004;2023-01-01T03:06:36;100829.72;;;16.35;66.17
33486;BME280;19824;52.098;5.004;2023-01-01T03:09:14;100832.03;;;16.38;65.99
33486;BME280;19824;52.098;5.004;2023-01-01T03:11:55;100837.94;;;16.33;66.89
33486;BME280;19824;52.098;5.004;2023-01-01T03:14:35;100838.25;;;16.30;66.80
33486;BME280;19824;52.098;5.004;2023-01-01T03:17:16;100845.97;;;16.41;65.98
33486;BME280;19824;52.098;5.004;2023-01-01T03:19:51;100839.63;;;16.34;66.85
33486;BME280;19824;52.098;5.004;2023-01-01T03:22:27;100848.03;;;16.31;67.00
33486;BME280;19824;52.098;5.004;2023-01-01T03:25:03;100840.31;;;16.28;66.44
33486;BME280;19824;52.098;5.004;2023-01-01T03:27:36;100855.59;;;16.36;66.26
33486;BME280;19824;52.098;5.004;2023-01-01T03:30:09;100866.59;;;16.41;66.02
33486;BME280;19824;52.098;5.004;2023-01-01T03:32:44;100866.16;;;16.37;66.57
33486;BME280;19824;52.098;5.004;2023-01-01T03:35:34;100891.38;;;16.28;66.64
33486;BME280;19824;52.098;5.004;2023-01-01T03:38:08;100878.91;;;16.35;67.43
33486;BME280;19824;52.098;5.004;2023-01-01T03:40:38;100886.78;;;16.37;67.55
33486;BME280;19824;52.098;5.004;2023-01-01T03:43:12;100887.66;;;16.29;67.93
33486;BME280;19824;52.098;5.004;2023-01-01T03:45:45;100885.69;;;16.23;69.50
33486;BME280;19824;52.098;5.004;2023-01-01T03:48:17;100894.66;;;16.16;69.25
33486;BME280;19824;52.098;5.004;2023-01-01T03:50:55;100901.56;;;16.10;69.20
33486;BME280;19824;52.098;5.004;2023-01-01T03:53:35;100908.63;;;16.11;69.21
33486;BME280;19824;52.098;5.004;2023-01-01T03:56:13;100892.00;;;16.08;70.07
33486;BME280;19824;52.098;5.004;2023-01-01T03:58:50;100936.50;;;16.10;69.63
33486;BME280;19824;52.098;5.004;2023-01-01T04:01:26;100932.97;;;16.10;69.53
33486;BME280;19824;52.098;5.004;2023-01-01T04:03:58;100936.19;;;16.05;70.69
33486;BME280;19824;52.098;5.004;2023-01-01T04:06:28;100915.03;;;16.02;70.87
33486;BME280;19824;52.098;5.004;2023-01-01T04:08:58;100922.81;;;15.97;70.67
33486;BME280;19824;52.098;5.004;2023-01-01T04:11:29;100921.34;;;15.87;71.45
33486;BME280;19824;52.098;5.004;2023-01-01T04:14:12;100910.81;;;15.77;72.70
33486;BME280;19824;52.098;5.004;2023-01-01T04:16:40;100916.88;;;15.71;72.52
33486;BME280;19824;52.098;5.004;2023-01-01T04:19:11;100928.31;;;15.66;73.28
33486;BME280;19824;52.098;5.004;2023-01-01T04:21:40;100928.19;;;15.59;72.94
33486;BME280;19824;52.098;5.004;2023-01-01T04:24:09;100927.00;;;15.62;72.67
33486;BME280;19824;52.098;5.004;2023-01-01T04:26:37;100938.59;;;15.54;73.11
33486;BME280;19824;52.098;5.004;2023-01-01T04:29:06;100935.91;;;15.54;74.46
33486;BME280;19824;52.098;5.004;2023-01-01T04:31:36;100950.34;;;15.45;74.91
33486;BME280;19824;52.098;5.004;2023-01-01T04:34:04;100946.16;;;15.43;75.76
33486;BME280;19824;52.098;5.004;2023-01-01T04:36:35;100957.56;;;15.37;75.99
33486;BME280;19824;52.098;5.004;2023-01-01T04:39:05;100973.03;;;15.35;76.51
33486;BME280;19824;52.098;5.004;2023-01-01T04:41:34;100982.75;;;15.28;76.50
33486;BME280;19824;52.098;5.004;2023-01-01T04:44:03;100982.75;;;15.28;77.23
33486;BME280;19824;52.098;5.004;2023-01-01T04:46:32;100985.94;;;15.23;77.23
33486;BME280;19824;52.098;5.004;2023-01-01T04:49:00;101001.53;;;15.20;77.81
33486;BME280;19824;52.098;5.004;2023-01-01T04:51:29;101000.50;;;15.13;78.48
33486;BME280;19824;52.098;5.004;2023-01-01T04:54:00;100999.50;;;15.14;78.92
33486;BME280;19824;52.098;5.004;2023-01-01T04:56:28;100997.50;;;15.08;78.76
33486;BME280;19824;52.098;5.004;2023-01-01T04:58:57;101004.19;;;15.12;78.15
33486;BME280;19824;52.098;5.004;2023-01-01T05:01:28;101003.03;;;15.06;78.70
33486;BME280;19824;52.098;5.004;2023-01-01T05:03:58;101003.69;;;15.00;79.05
33486;BME280;19824;52.098;5.004;2023-01-01T05:06:27;101004.69;;;14.99;78.64
33486;BME280;19824;52.098;5.004;2023-01-01T05:08:56;101012.91;;;14.98;78.36
33486;BME280;19824;52.098;5.004;2023-01-01T05:11:29;101014.94;;;14.96;78.24
33486;BME280;19824;52.098;5.004;2023-01-01T05:13:59;101018.13;;;14.91;78.65
33486;BME280;19824;52.098;5.004;2023-01-01T05:16:31;101019.63;;;14.94;78.33
33486;BME280;19824;52.098;5.004;2023-01-01T05:18:59;101014.56;;;14.91;78.11
33486;BME280;19824;52.098;5.004;2023-01-01T05:21:30;101019.47;;;14.95;77.73
33486;BME280;19824;52.098;5.004;2023-01-01T05:24:02;101015.59;;;14.98;77.04
33486;BME280;19824;52.098;5.004;2023-01-01T05:26:36;101007.38;;;14.91;76.71
33486;BME280;19824;52.098;5.004;2023-01-01T05:29:05;101030.69;;;14.99;75.87
33486;BME280;19824;52.098;5.004;2023-01-01T05:31:43;101040.91;;;14.95;75.93
33486;BME280;19824;52.098;5.004;2023-01-01T05:34:13;101037.75;;;15.00;74.93
33486;BME280;19824;52.098;5.004;2023-01-01T05:36:41;101048.97;;;15.03;73.97
33486;BME280;19824;52.098;5.004;2023-01-01T05:39:11;101052.47;;;14.96;74.64
33486;BME280;19824;52.098;5.004;2023-01-01T05:41:42;101047.97;;;14.96;73.98
33486;BME280;19824;52.098;5.004;2023-01-01T05:44:11;101060.34;;;14.97;74.36
33486;BME280;19824;52.098;5.004;2023-01-01T05:46:41;101049.44;;;14.91;74.65
33486;BME280;19824;52.098;5.004;2023-01-01T05:49:11;101045.44;;;14.87;74.58
33486;BME280;19824;52.098;5.004;2023-01-01T05:51:40;101072.94;;;14.89;73.80
33486;BME280;19824;52.098;5.004;2023-01-01T05:54:09;101067.22;;;14.92;74.13
33486;BME280;19824;52.098;5.004;2023-01-01T05:56:37;101061.84;;;14.92;73.65
33486;BME280;19824;52.098;5.004;2023-01-01T05:59:09;101070.25;;;14.89;73.07
33486;BME280;19824;52.098;5.004;2023-01-01T06:01:37;101087.34;;;14.88;73.93
33486;BME280;19824;52.098;5.004;2023-01-01T06:04:12;101074.56;;;14.82;73.54
33486;BME280;19824;52.098;5.004;2023-01-01T06:06:41;101086.81;;;14.84;73.33
33486;BME280;19824;52.098;5.004;2023-01-01T06:09:10;101094.72;;;14.86;72.83
33486;BME280;19824;52.098;5.004;2023-01-01T06:11:39;101092.53;;;14.81;73.01
33486;BME280;19824;52.098;5.004;2023-01-01T06:14:09;101101.03;;;14.77;72.62
33486;BME280;19824;52.098;5.004;2023-01-01T06:16:38;101095.66;;;14.77;72.81
33486;BME280;19824;52.098;5.004;2023-01-01T06:19:08;101108.75;;;14.80;72.96
33486;BME280;19824;52.098;5.004;2023-01-01T06:21:36;101114.81;;;14.82;72.46
33486;BME280;19824;52.098;5.004;2023-01-01T06:24:06;101115.13;;;14.79;72.48
33486;BME280;19824;52.098;5.004;2023-01-01T06:26:34;101116.81;;;14.80;72.38
33486;BME280;19824;52.098;5.004;2023-01-01T06:29:03;101122.84;;;14.74;71.86
33486;BME280;19824;52.098;5.004;2023-01-01T06:31:34;101126.50;;;14.73;71.86
33486;BME280;19824;52.098;5.004;2023-01-01T06:34:07;101130.66;;;14.67;72.19
33486;BME280;19824;52.098;5.004;2023-01-01T06:36:36;101144.91;;;14.68;72.15
33486;BME280;19824;52.098;5.004;2023-01-01T06:39:05;101148.91;;;14.64;72.59
33486;BME280;19824;52.098;5.004;2023-01-01T06:41:35;101142.72;;;14.64;72.79
33486;BME280;19824;52.098;5.004;2023-01-01T06:44:04;101147.56;;;14.60;72.52
33486;BME280;19824;52.098;5.004;2023-01-01T06:46:35;101138.84;;;14.58;72.26
33486;BME280;19824;52.098;5.004;2023-01-01T06:49:06;101148.03;;;14.56;72.49
33486;BME280;19824;52.098;5.004;2023-01-01T06:51:38;101145.22;;;14.57;72.05
33486;BME280;19824;52.098;5.004;2023-01-01T06:54:08;101160.06;;;14.52;72.29
33486;BME280;19824;52.098;5.004;2023-01-01T06:56:37;101158.75;;;14.48;72.54
33486;BME280;19824;52.098;5.004;2023-01-01T06:59:06;101139.44;;;14.44;71.87
33486;BME280;19824;52.098;5.004;2023-01-01T07:01:38;101159.88;;;14.45;71.71
33486;BME280;19824;52.098;5.004;2023-01-01T07:04:12;101177.13;;;14.43;71.70
33486;BME280;19824;52.098;5.004;2023-01-01T07:06:41;101187.66;;;14.44;71.49
33486;BME280;19824;52.098;5.004;2023-01-01T07:09:10;101187.84;;;14.43;70.44
33486;BME280;19824;52.098;5.004;2023-01-01T07:11:38;101201.72;;;14.38;71.14
33486;BME280;19824;52.098;5.004;2023-01-01T07:14:07;101204.03;;;14.33;71.59
33486;BME280;19824;52.098;5.004;2023-01-01T07:16:38;101207.19;;;14.29;71.37
33486;BME280;19824;52.098;5.004;2023-01-01T07:19:06;101219.72;;;14.28;71.26
33486;BME280;19824;52.098;5.004;2023-01-01T07:21:41;101210.03;;;14.27;70.68
33486;BME280;19824;52.098;5.004;2023-01-01T07:24:13;101215.53;;;14.26;71.15
33486;BME280;19824;52.098;5.004;2023-01-01T07:26:43;101214.03;;;14.23;71.51
33486;BME280;19824;52.098;5.004;2023-01-01T07:29:12;101234.47;;;14.24;70.81
33486;BME280;19824;52.098;5.004;2023-01-01T07:31:43;101252.44;;;14.14;71.25
33486;BME280;19824;52.098;5.004;2023-01-01T07:34:15;101250.06;;;14.11;71.27
33486;BME280;19824;52.098;5.004;2023-01-01T07:36:44;101273.22;;;14.12;71.79
33486;BME280;19824;52.098;5.004;2023-01-01T07:39:13;101279.84;;;14.08;71.43
33486;BME280;19824;52.098;5.004;2023-01-01T07:41:42;101265.38;;;14.01;72.77
33486;BME280;19824;52.098;5.004;2023-01-01T07:44:11;101273.09;;;14.04;72.47
33486;BME280;19824;52.098;5.004;2023-01-01T07:46:39;101284.41;;;13.98;72.37
33486;BME280;19824;52.098;5.004;2023-01-01T07:49:10;101288.72;;;13.91;72.73
33486;BME280;19824;52.098;5.004;2023-01-01T07:51:39;101296.38;;;13.86;72.72
33486;BME280;19824;52.098;5.004;2023-01-01T07:54:07;101307.25;;;13.85;72.96
33486;BME280;19824;52.098;5.004;2023-01-01T07:56:36;101302.66;;;13.77;73.30
33486;BME280;19824;52.098;5.004;2023-01-01T07:59:05;101313.81;;;13.73;73.46
33486;BME280;19824;52.098;5.004;2023-01-01T08:01:35;101314.81;;;13.72;73.49
33486;BME280;19824;52.098;5.004;2023-01-01T08:04:04;101327.19;;;13.73;73.37
33486;BME280;19824;52.098;5.004;2023-01-01T08:06:36;101328.94;;;13.65;73.31
33486;BME280;19824;52.098;5.004;2023-01-01T08:09:05;101333.19;;;13.58;74.08
33486;BME280;19824;52.098;5.004;2023-01-01T08:11:33;101337.41;;;13.60;73.70
33486;BME280;19824;52.098;5.004;2023-01-01T08:14:02;101346.75;;;13.56;73.70
33486;BME280;19824;52.098;5.004;2023-01-01T08:16:31;101354.06;;;13.54;73.85
33486;BME280;19824;52.098;5.004;2023-01-01T08:18:59;101357.22;;;13.50;74.37
33486;BME280;19824;52.098;5.004;2023-01-01T08:21:28;101357.88;;;13.52;74.18
33486;BME280;19824;52.098;5.004;2023-01-01T08:23:59;101366.22;;;13.49;74.33
33486;BME280;19824;52.098;5.004;2023-01-01T08:26:30;101361.69;;;13.49;74.67
33486;BME280;19824;52.098;5.004;2023-01-01T08:29:03;101363.84;;;13.46;74.26
33486;BME280;19824;52.098;5.004;2023-01-01T08:31:33;101357.50;;;13.47;74.47
33486;BME280;19824;52.098;5.004;2023-01-01T08:34:01;101352.44;;;13.44;74.87
33486;BME280;19824;52.098;5.004;2023-01-01T08:36:30;101351.16;;;13.48;74.25
33486;BME280;19824;52.098;5.004;2023-01-01T08:39:01;101349.31;;;13.48;74.62
33486;BME280;19824;52.098;5.004;2023-01-01T08:41:29;101353.28;;;13.44;74.45
33486;BME280;19824;52.098;5.004;2023-01-01T08:43:58;101364.53;;;13.48;74.64
33486;BME280;19824;52.098;5.004;2023-01-01T08:46:27;101350.47;;;13.46;74.75
33486;BME280;19824;52.098;5.004;2023-01-01T08:48:56;101367.06;;;13.49;74.50
33486;BME280;19824;52.098;5.004;2023-01-01T08:51:24;101358.91;;;13.51;74.54
33486;BME280;19824;52.098;5.004;2023-01-01T08:53:53;101372.66;;;13.56;73.93
33486;BME280;19824;52.098;5.004;2023-01-01T08:56:24;101373.25;;;13.50;74.55
33486;BME280;19824;52.098;5.004;2023-01-01T08:58:52;101380.69;;;13.56;74.30
33486;BME280;19824;52.098;5.004;2023-01-01T09:01:30;101382.06;;;13.60;74.67
33486;BME280;19824;52.098;5.004;2023-01-01T09:03:59;101378.25;;;13.62;75.11
33486;BME280;19824;52.098;5.004;2023-01-01T09:06:27;101381.78;;;13.63;75.18
33486;BME280;19824;52.098;5.004;2023-01-01T09:08:56;101387.81;;;13.65;75.36
33486;BME280;19824;52.098;5.004;2023-01-01T09:11:27;101395.69;;;13.66;74.63
33486;BME280;19824;52.098;5.004;2023-01-01T09:13:56;101400.75;;;13.69;74.89
33486;BME280;19824;52.098;5.004;2023-01-01T09:16:25;101399.00;;;13.77;74.98
33486;BME280;19824;52.098;5.004;2023-01-01T09:18:54;101403.75;;;13.83;75.39
33486;BME280;19824;52.098;5.004;2023-01-01T09:21:22;101399.94;;;13.86;75.06
33486;BME280;19824;52.098;5.004;2023-01-01T09:23:51;101398.78;;;13.88;74.74
33486;BME280;19824;52.098;5.004;2023-01-01T09:26:20;101388.19;;;13.96;75.34
33486;BME280;19824;52.098;5.004;2023-01-01T09:28:50;101393.28;;;14.17;74.25
33486;BME280;19824;52.098;5.004;2023-01-01T09:31:19;101391.19;;;14.28;74.07
33486;BME280;19824;52.098;5.004;2023-01-01T09:33:48;101396.03;;;14.42;74.67
33486;BME280;19824;52.098;5.004;2023-01-01T09:36:28;101392.72;;;14.48;74.12
33486;BME280;19824;52.098;5.004;2023-01-01T09:38:58;101389.69;;;14.68;74.04
33486;BME280;19824;52.098;5.004;2023-01-01T09:41:49;101390.59;;;14.77;73.46
33486;BME280;19824;52.098;5.004;2023-01-01T09:44:43;101393.66;;;14.82;72.66
33486;BME280;19824;52.098;5.004;2023-01-01T09:47:23;101389.28;;;14.81;72.90
33486;BME280;19824;52.098;5.004;2023-01-01T09:49:59;101397.03;;;14.84;72.30
33486;BME280;19824;52.098;5.004;2023-01-01T09:52:40;101406.75;;;14.85;72.78
33486;BME280;19824;52.098;5.004;2023-01-01T09:55:17;101415.72;;;14.76;72.72
33486;BME280;19824;52.098;5.004;2023-01-01T09:57:46;101413.13;;;14.84;72.79
33486;BME280;19824;52.098;5.004;2023-01-01T10:00:18;101418.19;;;14.87;72.88
33486;BME280;19824;52.098;5.004;2023-01-01T10:03:06;101424.88;;;14.91;72.34
33486;BME280;19824;52.098;5.004;2023-01-01T10:05:48;101428.34;;;15.01;72.26
33486;BME280;19824;52.098;5.004;2023-01-01T10:08:33;101417.75;;;14.99;73.08
33486;BME280;19824;52.098;5.004;2023-01-01T10:11:13;101433.38;;;15.04;73.23
33486;BME280;19824;52.098;5.004;2023-01-01T10:13:45;101443.34;;;15.11;73.04
33486;BME280;19824;52.098;5.004;2023-01-01T10:16:27;101429.84;;;15.03;73.34
33486;BME280;19824;52.098;5.004;2023-01-01T10:19:19;101415.22;;;14.98;72.86
33486;BME280;19824;52.098;5.004;2023-01-01T10:21:51;101410.56;;;15.00;73.58
33486;BME280;19824;52.098;5.004;2023-01-01T10:24:36;101413.38;;;14.98;73.52
33486;BME280;19824;52.098;5.004;2023-01-01T10:27:09;101404.41;;;15.07;73.61
33486;BME280;19824;52.098;5.004;2023-01-01T10:29:44;101415.53;;;15.20;73.70
33486;BME280;19824;52.098;5.004;2023-01-01T10:32:21;101400.94;;;15.40;73.46
33486;BME280;19824;52.098;5.004;2023-01-01T10:34:54;101395.88;;;15.78;73.07
33486;BME280;19824;52.098;5.004;2023-01-01T10:37:25;101392.78;;;16.15;72.77
33486;BME280;19824;52.098;5.004;2023-01-01T10:39:55;101380.25;;;16.39;71.59
33486;BME280;19824;52.098;5.004;2023-01-01T10:42:25;101385.78;;;16.46;71.49
33486;BME280;19824;52.098;5.004;2023-01-01T10:44:54;101390.97;;;16.79;69.93
33486;BME280;19824;52.098;5.004;2023-01-01T10:47:28;101402.03;;;17.08;69.65
33486;BME280;19824;52.098;5.004;2023-01-01T10:49:59;101424.91;;;17.20;69.36
33486;BME280;19824;52.098;5.004;2023-01-01T10:52:35;101421.56;;;17.02;68.87
33486;BME280;19824;52.098;5.004;2023-01-01T10:55:17;101425.78;;;16.88;70.00
33486;BME280;19824;52.098;5.004;2023-01-01T10:57:46;101439.91;;;16.74;69.79
33486;BME280;19824;52.098;5.004;2023-01-01T11:00:22;101445.28;;;16.59;70.28
33486;BME280;19824;52.098;5.004;2023-01-01T11:03:17;101449.97;;;16.33;71.38
33486;BME280;19824;52.098;5.004;2023-01-01T11:06:05;101462.00;;;16.21;71.42
33486;BME280;19824;52.098;5.004;2023-01-01T11:08:37;101458.59;;;16.03;72.62
33486;BME280;19824;52.098;5.004;2023-01-01T11:11:16;101459.56;;;15.94;72.32
33486;BME280;19824;52.098;5.004;2023-01-01T11:13:49;101454.16;;;15.86;72.52
33486;BME280;19824;52.098;5.004;2023-01-01T11:16:19;101464.53;;;15.73;73.14
33486;BME280;19824;52.098;5.004;2023-01-01T11:18:50;101474.03;;;15.67;73.72
33486;BME280;19824;52.098;5.004;2023-01-01T11:21:21;101475.31;;;15.56;74.17
33486;BME280;19824;52.098;5.004;2023-01-01T11:24:05;101468.16;;;15.39;74.86
33486;BME280;19824;52.098;5.004;2023-01-01T11:26:36;101465.56;;;15.47;74.38
33486;BME280;19824;52.098;5.004;2023-01-01T11:29:26;101477.56;;;15.35;75.25
33486;BME280;19824;52.098;5.004;2023-01-01T11:31:58;101463.16;;;15.36;75.17
33486;BME280;19824;52.098;5.004;2023-01-01T11:34:33;101455.09;;;15.36;75.05
33486;BME280;19824;52.098;5.004;2023-01-01T11:37:22;101461.41;;;15.27;75.35
33486;BME280;19824;52.098;5.004;2023-01-01T11:39:55;101455.31;;;15.25;76.23
33486;BME280;19824;52.098;5.004;2023-01-01T11:42:28;101459.56;;;15.27;76.11
33486;BME280;19824;52.098;5.004;2023-01-01T11:45:00;101456.47;;;15.22;76.94
33486;BME280;19824;52.098;5.004;2023-01-01T11:47:33;101460.41;;;15.28;76.51
33486;BME280;19824;52.098;5.004;2023-01-01T11:50:18;101457.03;;;15.26;76.66
33486;BME280;19824;52.098;5.004;2023-01-01T11:52:52;101459.91;;;15.32;76.81
33486;BME280;19824;52.098;5.004;2023-01-01T11:55:36;101469.88;;;15.22;76.80
33486;BME280;19824;52.098;5.004;2023-01-01T11:58:14;101470.38;;;15.18;77.67
33486;BME280;19824;52.098;5.004;2023-01-01T12:00:49;101467.03;;;15.24;77.82
33486;BME280;19824;52.098;5.004;2023-01-01T12:03:24;101459.00;;;15.24;77.33
33486;BME280;19824;52.098;5.004;2023-01-01T12:06:05;101472.66;;;15.30;77.76
33486;BME280;19824;52.098;5.004;2023-01-01T12:08:38;101480.91;;;15.37;77.86
33486;BME280;19824;52.098;5.004;2023-01-01T12:11:16;101476.22;;;15.39;78.08
33486;BME280;19824;52.098;5.004;2023-01-01T12:13:53;101473.22;;;15.42;77.82
33486;BME280;19824;52.098;5.004;2023-01-01T12:16:33;101474.41;;;15.39;77.47
33486;BME280;19824;52.098;5.004;2023-01-01T12:19:12;101478.59;;;15.42;77.41
33486;BME280;19824;52.098;5.004;2023-01-01T12:21:47;101487.75;;;15.57;77.94
33486;BME280;19824;52.098;5.004;2023-01-01T12:24:19;101473.19;;;15.59;78.06
33486;BME280;19824;52.098;5.004;2023-01-01T12:27:14;101476.50;;;15.53;77.31
33486;BME280;19824;52.098;5.004;2023-01-01T12:30:03;101479.50;;;15.50;76.77
33486;BME280;19824;52.098;5.004;2023-01-01T12:32:53;101473.44;;;15.48;75.94
33486;BME280;19824;52.098;5.004;2023-01-01T12:35:51;101464.50;;;15.40;76.19
33486;BME280;19824;52.098;5.004;2023-01-01T12:38:41;101463.34;;;15.42;75.99
33486;BME280;19824;52.098;5.004;2023-01-01T12:41:23;101469.84;;;15.40;76.00
33486;BME280;19824;52.098;5.004;2023-01-01T12:44:03;101469.84;;;15.40;75.69
33486;BME280;19824;52.098;5.004;2023-01-01T12:46:47;101467.66;;;15.35;75.97
33486;BME280;19824;52.098;5.004;2023-01-01T12:49:39;101469.03;;;15.39;75.52
33486;BME280;19824;52.098;5.004;2023-01-01T12:52:24;101470.34;;;15.35;75.62
33486;BME280;19824;52.098;5.004;2023-01-01T12:55:35;101480.19;;;15.27;76.00
33486;BME280;19824;52.098;5.004;2023-01-01T12:58:13;101476.50;;;15.28;75.97
33486;BME280;19824;52.098;5.004;2023-01-01T13:00:55;101483.13;;;15.24;76.70
33486;BME280;19824;52.098;5.004;2023-01-01T13:03:29;101483.03;;;15.25;76.40
33486;BME280;19824;52.098;5.004;2023-01-01T13:06:00;101476.78;;;15.25;75.99
33486;BME280;19824;52.098;5.004;2023-01-01T13:08:31;101477.50;;;15.27;76.53
33486;BME280;19824;52.098;5.004;2023-01-01T13:11:05;101479.09;;;15.20;76.84
33486;BME280;19824;52.098;5.004;2023-01-01T13:13:34;101466.13;;;15.15;76.19
33486;BME280;19824;52.098;5.004;2023-01-01T13:16:04;101478.06;;;15.21;76.63
33486;BME280;19824;52.098;5.004;2023-01-01T13:18:34;101474.09;;;15.25;76.30
33486;BME280;19824;52.098;5.004;2023-01-01T13:21:06;101478.78;;;15.23;76.80